sensor_id;sensor_type;location;lat;lon;timestamp;pressure;altitude;pressure_sealevel;temperature;humidity
6034;BME280;3045;43.226;27.858;2023-06-26T12:19:56;153745.94;;;30.61;100.00
6034;BME280;3045;43.226;27.858;2023-06-26T12:22:23;153739.56;;;30.58;100.00
6034;BME280;3045;43.226;27.858;2023-06-26T12:24:50;153704.94;;;30.45;100.00
6034;BME280;3045;43.226;27.858;2023-06-26T12:27:18;153675.44;;;30.33;100.00
6034;BME280;3045;43.226;27.858;2023-06-26T12:29:50;153669.00;;;30.30;100.00
6034;BME280;3045;43.226;27.858;2023-06-26T12:32:17;153584.41;;;29.97;100.00
6034;BME280;3045;43.226;27.858;2023-06-26T12:34:49;153392.16;;;29.21;100.00
6034;BME280;3045;43.226;27.858;2023-06-26T12:37:17;153284.56;;;28.79;100.00
6034;BME280;3045;43.226;27.858;2023-06-26T12:39:49;153136.03;;;28.20;100.00
6034;BME280;3045;43.226;27.858;2023-06-26T12:42:17;153036.13;;;27.81;100.00
6034;BME280;3045;43.226;27.858;2023-06-26T12:44:44;152873.59;;;27.16;100.00
6034;BME280;3045;43.226;27.858;2023-06-26T12:47:12;152772.53;;;26.76;100.00
6034;BME280;3045;43.226;27.858;2023-06-26T12:49:41;152720.09;;;26.56;100.00
6034;BME280;3045;43.226;27.858;2023-06-26T12:52:09;152698.34;;;26.47;100.00
6034;BME280;3045;43.226;27.858;2023-06-26T12:54:38;152668.91;;;26.35;100.00
6034;BME280;3045;43.226;27.858;2023-06-26T12:57:08;147135.28;;;26.10;100.00
6034;BME280;3045;43.226;27.858;2023-06-26T12:59:36;127631.78;;;25.80;100.00
6034;BME280;3045;43.226;27.858;2023-06-26T13:02:03;108269.19;;;25.57;100.00
6034;BME280;3045;43.226;27.858;2023-06-26T13:04:30;104903.28;;;25.63;100.00
6034;BME280;3045;43.226;27.858;2023-06-26T13:06:57;101821.53;;;25.37;100.00
6034;BME280;3045;43.226;27.858;2023-06-26T13:09:31;101502.31;;;25.47;100.00
6034;BME280;3045;43.226;27.858;2023-06-26T13:12:00;101496.31;;;25.44;100.00
6034;BME280;3045;43.226;27.858;2023-06-26T13:14:27;116063.16;;;25.64;100.00
6034;BME280;3045;43.226;27.858;2023-06-26T13:16:56;115050.16;;;25.65;100.00
6034;BME280;3045;43.226;27.858;2023-06-26T13:19:23;127638.22;;;25.83;100.00
6034;BME280;3045;43.226;27.858;2023-06-26T13:21:50;125947.53;;;25.87;100.00
6034;BME280;3045;43.226;27.858;2023-06-26T13:24:16;122884.78;;;25.84;100.00
6034;BME280;3045;43.226;27.858;2023-06-26T13:26:43;122548.38;;;25.85;100.00
6034;BME280;3045;43.226;27.858;2023-06-26T13:29:12;127689.59;;;26.07;100.00
6034;BME280;3045;43.226;27.858;2023-06-26T13:31:39;134493.63;;;26.06;100.00
6034;BME280;3045;43.226;27.858;2023-06-26T13:34:05;152480.25;;;26.13;100.00
6034;BME280;3045;43.226;27.858;2023-06-26T13:36:32;152634.44;;;26.22;100.00
6034;BME280;3045;43.226;27.858;2023-06-26T13:39:00;152639.50;;;26.24;100.00
6034;BME280;3045;43.226;27.858;2023-06-26T13:41:27;152652.31;;;26.29;100.00
6034;BME280;3045;43.226;27.858;2023-06-26T13:43:54;152638.22;;;26.23;100.00
6034;BME280;3045;43.226;27.858;2023-06-26T13:46:25;152597.28;;;26.07;100.00
6034;BME280;3045;43.226;27.858;2023-06-26T13:48:53;152590.91;;;26.05;100.00
6034;BME280;3045;43.226;27.858;2023-06-26T13:51:20;152565.31;;;25.95;100.00
6034;BME280;3045;43.226;27.858;2023-06-26T13:53:46;152567.91;;;25.96;100.00
6034;BME280;3045;43.226;27.858;2023-06-26T13:56:13;152606.22;;;26.11;100.00
6034;BME280;3045;43.226;27.858;2023-06-26T13:58:40;152625.41;;;26.18;100.00
6034;BME280;3045;43.226;27.858;2023-06-26T14:01:07;152639.50;;;26.24;100.00
6034;BME280;3045;43.226;27.858;2023-06-26T14:03:37;152639.50;;;26.24;100.00
6034;BME280;3045;43.226;27.858;2023-06-26T14:06:05;152647.16;;;26.27;100.00
6034;BME280;3045;43.226;27.858;2023-06-26T14:08:36;152634.44;;;26.22;100.00
6034;BME280;3045;43.226;27.858;2023-06-26T14:11:03;152667.69;;;26.35;100.00
6034;BME280;3045;43.226;27.858;2023-06-26T14:13:30;152677.91;;;26.39;100.00
6034;BME280;3045;43.226;27.858;2023-06-26T14:15:57;152721.38;;;26.56;100.00
6034;BME280;3045;43.226;27.858;2023-06-26T14:18:23;152695.78;;;26.46;100.00
6034;BME280;3045;43.226;27.858;2023-06-26T14:20:52;152720.09;;;26.56;100.00
6034;BME280;3045;43.226;27.858;2023-06-26T14:23:20;152734.13;;;26.61;100.00
6034;BME280;3045;43.226;27.858;2023-06-26T14:25:47;152690.66;;;26.44;100.00
6034;BME280;3045;43.226;27.858;2023-06-26T14:28:14;152657.41;;;26.31;100.00
6034;BME280;3045;43.226;27.858;2023-06-26T14:30:41;152662.53;;;26.33;100.00
6034;BME280;3045;43.226;27.858;2023-06-26T14:33:08;152654.88;;;26.30;100.00
6034;BME280;3045;43.226;27.858;2023-06-26T14:35:39;152661.25;;;26.32;100.00
6034;BME280;3045;43.226;27.858;2023-06-26T14:38:08;152645.94;;;26.26;100.00
6034;BME280;3045;43.226;27.858;2023-06-26T14:40:35;152662.53;;;26.33;100.00
6034;BME280;3045;43.226;27.858;2023-06-26T14:43:01;152647.16;;;26.27;100.00
6034;BME280;3045;43.226;27.858;2023-06-26T14:45:28;152514.22;;;25.74;100.00
6034;BME280;3045;43.226;27.858;2023-06-26T14:47:55;152541.03;;;25.85;100.00
6034;BME280;3045;43.226;27.858;2023-06-26T14:50:22;152538.50;;;25.84;100.00
6034;BME280;3045;43.226;27.858;2023-06-26T14:52:49;152542.31;;;25.85;100.00
6034;BME280;3045;43.226;27.858;2023-06-26T14:55:17;152550.03;;;25.88;100.00
6034;BME280;3045;43.226;27.858;2023-06-26T14:57:44;152532.09;;;25.81;100.00
6034;BME280;3045;43.226;27.858;2023-06-26T15:00:12;152552.53;;;25.89;100.00
6034;BME280;3045;43.226;27.858;2023-06-26T15:02:39;152571.69;;;25.97;100.00
6034;BME280;3045;43.226;27.858;2023-06-26T15:05:07;152574.28;;;25.98;100.00
6034;BME280;3045;43.226;27.858;2023-06-26T15:07:34;152572.97;;;25.98;100.00
6034;BME280;3045;43.226;27.858;2023-06-26T15:10:01;152553.81;;;25.90;100.00
6034;BME280;3045;43.226;27.858;2023-06-26T15:12:29;152529.53;;;25.80;100.00
6034;BME280;3045;43.226;27.858;2023-06-26T15:14:56;152502.72;;;25.70;100.00
6034;BME280;3045;43.226;27.858;2023-06-26T15:17:23;152473.34;;;25.58;100.00
6034;BME280;3045;43.226;27.858;2023-06-26T15:19:50;152455.34;;;25.51;100.00
6034;BME280;3045;43.226;27.858;2023-06-26T15:22:17;152460.53;;;25.53;100.00
6034;BME280;3045;43.226;27.858;2023-06-26T15:24:45;152452.84;;;25.50;100.00
6034;BME280;3045;43.226;27.858;2023-06-26T15:27:11;152455.34;;;25.51;100.00
6034;BME280;3045;43.226;27.858;2023-06-26T15:29:40;152492.50;;;25.66;100.00
6034;BME280;3045;43.226;27.858;2023-06-26T15:32:08;152442.63;;;25.46;100.00
6034;BME280;3045;43.226;27.858;2023-06-26T15:34:35;152480.97;;;25.61;100.00
6034;BME280;3045;43.226;27.858;2023-06-26T15:37:02;152520.59;;;25.77;100.00
6034;BME280;3045;43.226;27.858;2023-06-26T15:39:29;152527.00;;;25.79;100.00
6034;BME280;3045;43.226;27.858;2023-06-26T15:41:56;152537.22;;;25.83;100.00
6034;BME280;3045;43.226;27.858;2023-06-26T15:44:22;152550.03;;;25.88;100.00
6034;BME280;3045;43.226;27.858;2023-06-26T15:46:51;152527.00;;;25.79;100.00
6034;BME280;3045;43.226;27.858;2023-06-26T15:49:18;152455.34;;;25.51;100.00
6034;BME280;3045;43.226;27.858;2023-06-26T15:51:44;152506.56;;;25.71;100.00
6034;BME280;3045;43.226;27.858;2023-06-26T15:54:13;152518.03;;;25.76;100.00
6034;BME280;3045;43.226;27.858;2023-06-26T15:56:41;152544.88;;;25.86;100.00
6034;BME280;3045;43.226;27.858;2023-06-26T15:59:09;152524.44;;;25.78;100.00
6034;BME280;3045;43.226;27.858;2023-06-26T16:01:36;152547.44;;;25.87;100.00
6034;BME280;3045;43.226;27.858;2023-06-26T16:04:05;152527.00;;;25.79;100.00
6034;BME280;3045;43.226;27.858;2023-06-26T16:06:32;152504.00;;;25.70;100.00
6034;BME280;3045;43.226;27.858;2023-06-26T16:08:59;152518.03;;;25.76;100.00
6034;BME280;3045;43.226;27.858;2023-06-26T16:11:26;152457.94;;;25.52;100.00
6034;BME280;3045;43.226;27.858;2023-06-26T16:13:52;152455.34;;;25.51;100.00
6034;BME280;3045;43.226;27.858;2023-06-26T16:16:20;152472.03;;;25.58;100.00
6034;BME280;3045;43.226;27.858;2023-06-26T16:18:47;152424.69;;;25.39;100.00
6034;BME280;3045;43.226;27.858;2023-06-26T16:21:15;152445.13;;;25.47;100.00
6034;BME280;3045;43.226;27.858;2023-06-26T16:23:45;152447.72;;;25.48;100.00
6034;BME280;3045;43.226;27.858;2023-06-26T16:26:12;152434.91;;;25.43;100.00
6034;BME280;3045;43.226;27.858;2023-06-26T16:28:39;152437.50;;;25.44;100.00
6034;BME280;3045;43.226;27.858;2023-06-26T16:31:05;152457.94;;;25.52;100.00
6034;BME280;3045;43.226;27.858;2023-06-26T16:33:32;152445.13;;;25.47;100.00
6034;BME280;3045;43.226;27.858;2023-06-26T16:35:59;152422.13;;;25.38;100.00
6034;BME280;3045;43.226;27.858;2023-06-26T16:38:27;152386.38;;;25.24;100.00
6034;BME280;3045;43.226;27.858;2023-06-26T16:40:54;152391.47;;;25.26;100.00
6034;BME280;3045;43.226;27.858;2023-06-26T16:43:24;152386.38;;;25.24;100.00
6034;BME280;3045;43.226;27.858;2023-06-26T16:45:51;152388.97;;;25.25;100.00
6034;BME280;3045;43.226;27.858;2023-06-26T16:48:18;152358.25;;;25.13;100.00
6034;BME280;3045;43.226;27.858;2023-06-26T16:50:45;152388.97;;;25.25;100.00
6034;BME280;3045;43.226;27.858;2023-06-26T16:53:12;152392.75;;;25.26;100.00
6034;BME280;3045;43.226;27.858;2023-06-26T16:55:41;152354.44;;;25.11;100.00
6034;BME280;3045;43.226;27.858;2023-06-26T16:58:08;152341.66;;;25.06;100.00
6034;BME280;3045;43.226;27.858;2023-06-26T17:00:35;152308.44;;;24.93;100.00
6034;BME280;3045;43.226;27.858;2023-06-26T17:03:03;152281.59;;;24.82;100.00
6034;BME280;3045;43.226;27.858;2023-06-26T17:05:31;152321.22;;;24.98;100.00
6034;BME280;3045;43.226;27.858;2023-06-26T17:07:57;152369.75;;;25.17;100.00
6034;BME280;3045;43.226;27.858;2023-06-26T17:10:24;152358.25;;;25.13;100.00
6034;BME280;3045;43.226;27.858;2023-06-26T17:12:52;152337.81;;;25.05;100.00
6034;BME280;3045;43.226;27.858;2023-06-26T17:15:23;152339.09;;;25.05;100.00
6034;BME280;3045;43.226;27.858;2023-06-26T17:17:51;152289.31;;;24.85;100.00
6034;BME280;3045;43.226;27.858;2023-06-26T17:20:18;152328.88;;;25.01;100.00
6034;BME280;3045;43.226;27.858;2023-06-26T17:22:46;151675.16;;;24.97;100.00
6034;BME280;3045;43.226;27.858;2023-06-26T17:25:14;151938.69;;;24.92;100.00
6034;BME280;3045;43.226;27.858;2023-06-26T17:27:41;139653.31;;;24.78;100.00
6034;BME280;3045;43.226;27.858;2023-06-26T17:30:10;132840.97;;;24.74;100.00
6034;BME280;3045;43.226;27.858;2023-06-26T17:32:37;128760.06;;;24.72;100.00
6034;BME280;3045;43.226;27.858;2023-06-26T17:35:05;124999.03;;;24.57;100.00
6034;BME280;3045;43.226;27.858;2023-06-26T17:37:33;120620.38;;;24.70;100.00
6034;BME280;3045;43.226;27.858;2023-06-26T17:40:00;117912.41;;;24.70;100.00
6034;BME280;3045;43.226;27.858;2023-06-26T17:42:27;116549.44;;;24.65;100.00
6034;BME280;3045;43.226;27.858;2023-06-26T17:44:54;113525.94;;;24.75;100.00
6034;BME280;3045;43.226;27.858;2023-06-26T17:47:22;109452.38;;;24.64;100.00
6034;BME280;3045;43.226;27.858;2023-06-26T17:49:49;94964.38;;;24.61;100.00
6034;BME280;3045;43.226;27.858;2023-06-26T17:52:16;77199.34;;;24.63;100.00
6034;BME280;3045;43.226;27.858;2023-06-26T17:54:43;67824.38;;;24.41;100.00
6034;BME280;3045;43.226;27.858;2023-06-26T17:57:09;61843.53;;;24.55;100.00
6034;BME280;3045;43.226;27.858;2023-06-26T17:59:36;59844.50;;;24.52;100.00
6034;BME280;3045;43.226;27.858;2023-06-26T18:02:03;56170.53;;;24.35;100.00
6034;BME280;3045;43.226;27.858;2023-06-26T18:04:32;56849.13;;;24.49;100.00
6034;BME280;3045;43.226;27.858;2023-06-26T18:06:59;54843.00;;;24.36;100.00
6034;BME280;3045;43.226;27.858;2023-06-26T18:09:26;56183.09;;;24.48;100.00
6034;BME280;3045;43.226;27.858;2023-06-26T18:11:53;46558.59;;;24.44;100.00
6034;BME280;3045;43.226;27.858;2023-06-26T18:14:20;34310.59;;;24.24;100.00
6034;BME280;3045;43.226;27.858;2023-06-26T18:16:47;32006.69;;;24.33;100.00
6034;BME280;3045;43.226;27.858;2023-06-26T18:19:13;32337.69;;;24.35;100.00
6034;BME280;3045;43.226;27.858;2023-06-26T18:21:42;31348.59;;;24.35;100.00
6034;BME280;3045;43.226;27.858;2023-06-26T18:24:09;31007.97;;;24.16;100.00
6034;BME280;3045;43.226;27.858;2023-06-26T18:26:35;29361.41;;;24.18;100.00
6034;BME280;3045;43.226;27.858;2023-06-26T18:29:02;26728.00;;;24.20;100.00
6034;BME280;3045;43.226;27.858;2023-06-26T18:31:29;23767.53;;;24.23;100.00
6034;BME280;3045;43.226;27.858;2023-06-26T18:33:56;22115.41;;;24.03;100.00
6034;BME280;3045;43.226;27.858;2023-06-26T18:36:23;21456.94;;;24.00;100.00
6034;BME280;3045;43.226;27.858;2023-06-26T18:38:51;16528.91;;;23.91;100.00
6034;BME280;3045;43.226;27.858;2023-06-26T18:41:18;12915.53;;;23.65;100.00
6034;BME280;3045;43.226;27.858;2023-06-26T18:43:45;11280.31;;;23.75;100.00
6034;BME280;3045;43.226;27.858;2023-06-26T18:46:13;11935.38;;;23.75;100.00
6034;BME280;3045;43.226;27.858;2023-06-26T18:48:40;7346.91;;;23.38;100.00
6034;BME280;3045;43.226;27.858;2023-06-26T18:51:07;7019.03;;;23.32;100.00
6034;BME280;3045;43.226;27.858;2023-06-26T18:53:35;12578.50;;;23.29;100.00
6034;BME280;3045;43.226;27.858;2023-06-26T18:56:06;8000.50;;;23.37;100.00
6034;BME280;3045;43.226;27.858;2023-06-26T18:58:33;8978.81;;;23.23;100.00
6034;BME280;3045;43.226;27.858;2023-06-26T19:01:00;11923.91;;;23.29;100.00
6034;BME280;3045;43.226;27.858;2023-06-26T19:03:27;10940.97;;;23.23;100.00
6034;BME280;3045;43.226;27.858;2023-06-26T19:05:53;11593.75;;;23.16;100.00
6034;BME280;3045;43.226;27.858;2023-06-26T19:08:20;17812.59;;;23.07;100.00
6034;BME280;3045;43.226;27.858;2023-06-26T19:10:47;15184.94;;;22.84;100.00
6034;BME280;3045;43.226;27.858;2023-06-26T19:13:15;18132.84;;;22.85;100.00
6034;BME280;3045;43.226;27.858;2023-06-26T19:15:42;25350.53;;;22.88;100.00
6034;BME280;3045;43.226;27.858;2023-06-26T19:18:09;38840.19;;;22.86;100.00
6034;BME280;3045;43.226;27.858;2023-06-26T19:20:36;151663.72;;;22.38;100.00
6034;BME280;3045;43.226;27.858;2023-06-26T19:23:04;127654.53;;;22.71;100.00
6034;BME280;3045;43.226;27.858;2023-06-26T19:25:31;93672.44;;;22.80;100.00
6034;BME280;3045;43.226;27.858;2023-06-26T19:27:58;151759.41;;;22.75;100.00
6034;BME280;3045;43.226;27.858;2023-06-26T19:30:26;151799.00;;;22.91;100.00
6034;BME280;3045;43.226;27.858;2023-06-26T19:32:53;151799.00;;;22.91;100.00
6034;BME280;3045;43.226;27.858;2023-06-26T19:35:19;139898.94;;;22.91;100.00
6034;BME280;3045;43.226;27.858;2023-06-26T19:37:47;147327.22;;;22.96;100.00
6034;BME280;3045;43.226;27.858;2023-06-26T19:40:14;135825.97;;;22.91;100.00
6034;BME280;3045;43.226;27.858;2023-06-26T19:42:41;138878.19;;;22.90;100.00
6034;BME280;3045;43.226;27.858;2023-06-26T19:45:08;115529.31;;;22.87;100.00
6034;BME280;3045;43.226;27.858;2023-06-26T19:47:37;119924.16;;;22.91;100.00
6034;BME280;3045;43.226;27.858;2023-06-26T19:50:06;103075.94;;;22.86;100.00
6034;BME280;3045;43.226;27.858;2023-06-26T19:52:34;66305.69;;;22.76;100.00
6034;BME280;3045;43.226;27.858;2023-06-26T19:55:01;64320.53;;;22.84;100.00
6034;BME280;3045;43.226;27.858;2023-06-26T19:57:29;32582.84;;;22.88;100.00
6034;BME280;3045;43.226;27.858;2023-06-26T19:59:56;15840.03;;;22.85;100.00
6034;BME280;3045;43.226;27.858;2023-06-26T20:02:23;7010.88;;;22.83;100.00
6034;BME280;3045;43.226;27.858;2023-06-26T20:04:51;-3422.00;;;22.78;100.00
6034;BME280;3045;43.226;27.858;2023-06-26T20:07:18;2114.97;;;22.68;100.00
6034;BME280;3045;43.226;27.858;2023-06-26T20:09:45;6026.94;;;22.54;100.00
6034;BME280;3045;43.226;27.858;2023-06-26T20:12:12;-167.69;;;22.38;100.00
6034;BME280;3045;43.226;27.858;2023-06-26T20:14:39;-2771.47;;;22.36;100.00
6034;BME280;3045;43.226;27.858;2023-06-26T20:17:06;1460.63;;;22.37;100.00
6034;BME280;3045;43.226;27.858;2023-06-26T20:19:33;-169.66;;;22.01;100.00
6034;BME280;3045;43.226;27.858;2023-06-26T20:22:01;-494.00;;;22.23;100.00
6034;BME280;3045;43.226;27.858;2023-06-26T20:24:28;7326.59;;;22.20;100.00
6034;BME280;3045;43.226;27.858;2023-06-26T20:26:59;3737.69;;;22.02;100.00
6034;BME280;3045;43.226;27.858;2023-06-26T20:29:25;2760.63;;;22.04;100.00
6034;BME280;3045;43.226;27.858;2023-06-26T20:31:52;3412.34;;;22.06;100.00
6034;BME280;3045;43.226;27.858;2023-06-26T20:34:19;2759.53;;;21.93;100.00
6034;BME280;3045;43.226;27.858;2023-06-26T20:36:47;7323.97;;;22.05;100.00
6034;BME280;3045;43.226;27.858;2023-06-26T20:39:15;12548.56;;;22.12;100.00
6034;BME280;3045;43.226;27.858;2023-06-26T20:41:43;31234.69;;;22.30;100.00
6034;BME280;3045;43.226;27.858;2023-06-26T20:44:11;30581.00;;;22.37;100.00
6034;BME280;3045;43.226;27.858;2023-06-26T20:46:40;21714.97;;;22.25;100.00
6034;BME280;3045;43.226;27.858;2023-06-26T20:49:08;22369.41;;;22.23;100.00
6034;BME280;3045;43.226;27.858;2023-06-26T20:51:35;23027.31;;;22.28;100.00
6034;BME280;3045;43.226;27.858;2023-06-26T20:54:03;29589.63;;;22.26;100.00
6034;BME280;3045;43.226;27.858;2023-06-26T20:56:32;46703.75;;;22.13;100.00
6034;BME280;3045;43.226;27.858;2023-06-26T20:58:58;76527.25;;;22.01;100.00
6034;BME280;3045;43.226;27.858;2023-06-26T21:01:25;138765.25;;;21.93;100.00
6034;BME280;3045;43.226;27.858;2023-06-26T21:03:53;151554.06;;;21.94;100.00
6034;BME280;3045;43.226;27.858;2023-06-26T21:06:19;151537.47;;;21.87;100.00
6034;BME280;3045;43.226;27.858;2023-06-26T21:08:47;151533.63;;;21.86;100.00
6034;BME280;3045;43.226;27.858;2023-06-26T21:11:14;151551.53;;;21.93;100.00
6034;BME280;3045;43.226;27.858;2023-06-26T21:13:42;151551.53;;;21.93;100.00
6034;BME280;3045;43.226;27.858;2023-06-26T21:16:09;151520.91;;;21.81;100.00
6034;BME280;3045;43.226;27.858;2023-06-26T21:18:36;151538.75;;;21.88;100.00
6034;BME280;3045;43.226;27.858;2023-06-26T21:21:03;151542.59;;;21.90;100.00
6034;BME280;3045;43.226;27.858;2023-06-26T21:23:30;151527.25;;;21.83;100.00
6034;BME280;3045;43.226;27.858;2023-06-26T21:25:57;151566.81;;;21.99;100.00
6034;BME280;3045;43.226;27.858;2023-06-26T21:28:23;151583.41;;;22.06;100.00
6034;BME280;3045;43.226;27.858;2023-06-26T21:30:52;151592.34;;;22.09;100.00
6034;BME280;3045;43.226;27.858;2023-06-26T21:33:18;151592.34;;;22.09;100.00
6034;BME280;3045;43.226;27.858;2023-06-26T21:35:45;151611.44;;;22.17;100.00
6034;BME280;3045;43.226;27.858;2023-06-26T21:38:12;151616.56;;;22.19;100.00
6034;BME280;3045;43.226;27.858;2023-06-26T21:40:39;151625.50;;;22.22;100.00
6034;BME280;3045;43.226;27.858;2023-06-26T21:43:06;151633.13;;;22.25;100.00
6034;BME280;3045;43.226;27.858;2023-06-26T21:45:33;151644.59;;;22.30;100.00
6034;BME280;3045;43.226;27.858;2023-06-26T21:48:03;151631.84;;;22.25;100.00
6034;BME280;3045;43.226;27.858;2023-06-26T21:50:30;151640.75;;;22.28;100.00
6034;BME280;3045;43.226;27.858;2023-06-26T21:52:57;151640.75;;;22.28;100.00
6034;BME280;3045;43.226;27.858;2023-06-26T21:55:24;151628.06;;;22.23;100.00
6034;BME280;3045;43.226;27.858;2023-06-26T21:57:51;151614.00;;;22.18;100.00
6034;BME280;3045;43.226;27.858;2023-06-26T22:00:17;151640.75;;;22.28;100.00
6034;BME280;3045;43.226;27.858;2023-06-26T22:02:44;151645.88;;;22.30;100.00
6034;BME280;3045;43.226;27.858;2023-06-26T22:05:13;151649.69;;;22.32;100.00
6034;BME280;3045;43.226;27.858;2023-06-26T22:07:40;151663.72;;;22.38;100.00
6034;BME280;3045;43.226;27.858;2023-06-26T22:10:07;150907.56;;;22.36;100.00
6034;BME280;3045;43.226;27.858;2023-06-26T22:12:34;139425.66;;;22.33;100.00
6034;BME280;3045;43.226;27.858;2023-06-26T22:15:01;125215.97;;;22.37;100.00
6034;BME280;3045;43.226;27.858;2023-06-26T22:17:29;116103.84;;;22.35;100.00
6034;BME280;3045;43.226;27.858;2023-06-26T22:19:57;109384.56;;;22.42;100.00
6034;BME280;3045;43.226;27.858;2023-06-26T22:22:25;100631.50;;;22.30;100.00
6034;BME280;3045;43.226;27.858;2023-06-26T22:24:52;89270.06;;;22.47;100.00
6034;BME280;3045;43.226;27.858;2023-06-26T22:27:19;78918.91;;;22.47;100.00
6034;BME280;3045;43.226;27.858;2023-06-26T22:29:46;71258.50;;;22.46;100.00
6034;BME280;3045;43.226;27.858;2023-06-26T22:32:13;67607.56;;;22.52;100.00
6034;BME280;3045;43.226;27.858;2023-06-26T22:34:40;65622.56;;;22.59;100.00
6034;BME280;3045;43.226;27.858;2023-06-26T22:37:07;64628.91;;;22.62;100.00
6034;BME280;3045;43.226;27.858;2023-06-26T22:39:35;61976.38;;;22.65;100.00
6034;BME280;3045;43.226;27.858;2023-06-26T22:42:04;62311.97;;;22.68;100.00
6034;BME280;3045;43.226;27.858;2023-06-26T22:44:31;65640.53;;;22.75;100.00
6034;BME280;3045;43.226;27.858;2023-06-26T22:46:58;68633.44;;;22.76;100.00
6034;BME280;3045;43.226;27.858;2023-06-26T22:49:25;72628.41;;;22.78;100.00
6034;BME280;3045;43.226;27.858;2023-06-26T22:51:52;72629.03;;;22.79;100.00
6034;BME280;3045;43.226;27.858;2023-06-26T22:54:19;74958.03;;;22.76;100.00
6034;BME280;3045;43.226;27.858;2023-06-26T22:56:47;75955.09;;;22.74;100.00
6034;BME280;3045;43.226;27.858;2023-06-26T22:59:14;78625.63;;;22.77;100.00
6034;BME280;3045;43.226;27.858;2023-06-26T23:01:41;79285.34;;;22.71;100.00
6034;BME280;3045;43.226;27.858;2023-06-26T23:04:08;79284.69;;;22.71;100.00
6034;BME280;3045;43.226;27.858;2023-06-26T23:06:35;84627.41;;;22.72;100.00
6034;BME280;3045;43.226;27.858;2023-06-26T23:09:02;92329.53;;;22.78;100.00
6034;BME280;3045;43.226;27.858;2023-06-26T23:11:29;105741.38;;;22.73;100.00
6034;BME280;3045;43.226;27.858;2023-06-26T23:13:57;106411.03;;;22.71;100.00
6034;BME280;3045;43.226;27.858;2023-06-26T23:16:24;109087.81;;;22.64;100.00
6034;BME280;3045;43.226;27.858;2023-06-26T23:18:51;111116.28;;;22.69;100.00
6034;BME280;3045;43.226;27.858;2023-06-26T23:21:19;113130.91;;;22.66;100.00
6034;BME280;3045;43.226;27.858;2023-06-26T23:23:47;120229.34;;;22.75;100.00
6034;BME280;3045;43.226;27.858;2023-06-26T23:26:18;120544.53;;;22.64;100.00
6034;BME280;3045;43.226;27.858;2023-06-26T23:28:45;132409.69;;;22.79;100.00
6034;BME280;3045;43.226;27.858;2023-06-26T23:31:14;148205.81;;;22.81;100.00
6034;BME280;3045;43.226;27.858;2023-06-26T23:33:42;151759.41;;;22.75;100.00
6034;BME280;3045;43.226;27.858;2023-06-26T23:36:11;151788.78;;;22.87;100.00
6034;BME280;3045;43.226;27.858;2023-06-26T23:38:38;149669.94;;;22.77;100.00
6034;BME280;3045;43.226;27.858;2023-06-26T23:41:08;147956.34;;;22.86;100.00
6034;BME280;3045;43.226;27.858;2023-06-26T23:43:35;148586.56;;;22.85;100.00
6034;BME280;3045;43.226;27.858;2023-06-26T23:46:03;150390.50;;;22.78;100.00
6034;BME280;3045;43.226;27.858;2023-06-26T23:48:37;149038.66;;;22.75;100.00
6034;BME280;3045;43.226;27.858;2023-06-26T23:51:04;149228.81;;;22.75;100.00
6034;BME280;3045;43.226;27.858;2023-06-26T23:53:32;151020.75;;;22.79;100.00
6034;BME280;3045;43.226;27.858;2023-06-26T23:55:59;151763.25;;;22.77;100.00
6034;BME280;3045;43.226;27.858;2023-06-26T23:58:26;147271.31;;;22.67;100.00
